Allen, KS

11:29 PM CDT on October 25, 2014 (GMT -0500)
East Emporia Kansas | Change Station
CLOSE
Current Station
Personal Weather Station
Location: Emporia, KS
Elevation: 1106 ft
Nearby Weather Stations

Elev 1106 ft 38.39 °N, 96.12 °W | Updated 6 minutes ago

Clear
Clear
64.6 °F
Feels Like 64.6 °F
N
3.7
Wind Variable Wind from SSE

Today
High -- | Low -- °F
--% Chance of Precip.
Yesterday
High -- | Low -- °F
Precip. -- in
7:44 AM 6:33 PM
Waxing Crescent, 6% visible
Pressure 29.94 in
Visibility 10.0 miles
Clouds Clear
Dew Point 58 °F
Humidity 80%
Rainfall 0.00 in
Snow Depth Not available.
UV 0 out of 12
Pollen 2.90 out of 12
Air Quality Not available.
Flu Activity No Activity
METAR KEMP 260353Z AUTO 16007KT 10SM CLR 19/16 A2996 RMK AO2 SLP139 T01890161

More Conditions Fewer Conditions

Pressure 29.94 in
Visibility 10.0 miles
Clouds Clear
Dew Point 58 °F
Humidity 80%
Rainfall 0.00 in
Snow Depth Not available.
UV 0 out of 12
Pollen 2.90 out of 12
Air Quality Not available.
Flu Activity No Activity
METAR KEMP 260353Z AUTO 16007KT 10SM CLR 19/16 A2996 RMK AO2 SLP139 T01890161

More Conditions Fewer Conditions

10-Day Weather Forecast

Almanac

Astronomy

Oct. 25, 2014 Rise Set
Actual Time 7:44 AM CDT 6:33 PM CDT
Civil Twilight 7:17 AM CDT 7:00 PM CDT
Nautical Twilight 6:46 AM CDT 7:31 PM CDT
Astronomical Twilight 6:15 AM CDT 8:02 PM CDT
Moon 9:23 AM CDT (10/25) 7:58 PM CDT (10/25)
Length of Visible Light 11h 43m
Length of Day
10h 48m
Tomorrow will be 2m 17s shorter.
Waxing Crescent, 6% of the Moon is Illuminated
Oct 26
Waxing Crescent
Oct 30
First Quarter
Nov 6
Full
Nov 14
Last Quarter
Nov 22
New

Yesterday's Extremes

State Highs State Lows

Community

WunderPhotos

Upload Photos

1,765,110 photos uploaded!

Nearby

Snow Depth

Station Depth Elevation
No new snow has been reported.

Earthquake Activity

City Distance Mag. Time & Date
Medford, Oklahoma 153 miles 2.6 12:44 PM CDT
2014-10-24
Anthony, Kansas 141 miles 2.7 4:24 AM CDT
2014-10-24
Medford, Oklahoma 159 miles 3.0 2:06 AM CDT
2014-10-23
Anthony, Kansas 143 miles 2.7 9:47 PM CDT
2014-10-22
Minimum magnitude displayed is 2.5.

Coastal Water Temperatures

Place Temperature
No Stations Reporting

Nearby Weather Stations